Assinippi, Massachusetts
Current Conditions -  °F | °C
As of 11:15 PM on Tuesday 27 Jan 2015 (Local Time) from KGHG Reporting Station
Light Snow Light Snow  
Wind Chill:   Ceiling: 100
Heat Index: 18°   Visibility: 1.2mi
Dew Point: 14°   Wind: 14mph
Humidity: 86%   Direction: 320°NW
Pressure: 29.63"   Gusts: 24mph
Location:  42.1315°N, 70.8467°W
Report Text: KGHG 280415Z AUTO 32012G21KT 1 1/4SM -SN OVC001 M08/M10 A2963 RMK AO2
Loading
Personal Weather Stations






























Interactive Weather Map New forecast layout! Learn more

10-Day Weather Forecast

Advertisements
Track Severe Weather on mobile